Time,TemperatureF,DewpointF,PressureIn,WindDirection,WindDirectionDegrees,WindSpeedMPH,WindSpeedGustMPH,Humidity,HourlyPrecipIn,Conditions,Clouds,dailyrainin,SoftwareType,DateUTC
2013-05-02 00:01:00,16.0,13.0,-100.00,West,272,4.0,5.0,89,0.00,,,-99.99,,2013-05-02 06:01:00,
2013-05-02 00:12:00,16.0,13.0,-100.00,West,267,4.0,5.0,90,0.00,,,-99.99,,2013-05-02 06:12:00,
2013-05-02 00:21:00,17.0,15.0,-100.00,WSW,250,4.0,6.0,90,0.00,,,-99.99,,2013-05-02 06:21:00,
2013-05-02 00:31:00,17.0,15.0,-100.00,SW,229,5.0,6.0,89,0.00,,,-99.99,,2013-05-02 06:31:00,
2013-05-02 00:42:00,17.0,14.0,-100.00,SW,230,5.0,6.0,90,0.00,,,-99.99,,2013-05-02 06:42:00,
2013-05-02 00:52:00,17.0,15.0,-100.00,WSW,240,5.0,6.0,90,0.00,,,-99.99,,2013-05-02 06:52:00,
2013-05-02 01:02:00,16.0,13.0,-100.00,West,271,4.0,6.0,87,0.00,,,-99.99,,2013-05-02 07:02:00,
2013-05-02 01:11:00,16.0,13.0,-100.00,WNW,298,4.0,6.0,89,0.00,,,-99.99,,2013-05-02 07:11:00,
2013-05-02 01:21:00,16.0,13.0,-100.00,West,260,3.0,6.0,85,0.00,,,-99.99,,2013-05-02 07:21:00,
2013-05-02 01:32:00,16.0,12.0,-100.00,West,278,3.0,4.0,84,0.00,,,-99.99,,2013-05-02 07:32:00,
2013-05-02 01:41:00,16.0,12.0,-100.00,WNW,285,3.0,4.0,84,0.00,,,-99.99,,2013-05-02 07:41:00,
2013-05-02 01:52:00,16.0,12.0,-100.00,West,278,3.0,4.0,84,0.00,,,-99.99,,2013-05-02 07:52:00,
2013-05-02 02:02:00,15.0,11.0,-100.00,West,267,4.0,6.0,84,0.00,,,-99.99,,2013-05-02 08:02:00,
2013-05-02 02:11:00,15.0,11.0,-100.00,West,264,4.0,6.0,85,0.00,,,-99.99,,2013-05-02 08:11:00,
2013-05-02 02:22:00,15.0,11.0,-100.00,West,270,5.0,6.0,85,0.00,,,-99.99,,2013-05-02 08:22:00,
2013-05-02 02:32:00,15.0,11.0,-100.00,West,277,3.0,5.0,84,0.00,,,-99.99,,2013-05-02 08:32:00,
2013-05-02 02:42:00,15.0,11.0,-100.00,WNW,291,3.0,4.0,86,0.00,,,-99.99,,2013-05-02 08:42:00,
2013-05-02 02:52:00,14.0,10.0,-100.00,WNW,291,4.0,7.0,85,0.00,,,-99.99,,2013-05-02 08:52:00,
2013-05-02 03:02:00,13.0,10.0,-100.00,WNW,298,5.0,6.0,84,0.00,,,-99.99,,2013-05-02 09:02:00,
2013-05-02 03:11:00,14.0,10.0,-100.00,WNW,298,4.0,6.0,84,0.00,,,-99.99,,2013-05-02 09:11:00,
2013-05-02 03:21:00,14.0,10.0,-100.00,WNW,298,4.0,6.0,84,0.00,,,-99.99,,2013-05-02 09:21:00,
2013-05-02 03:32:00,14.0,10.0,-100.00,WNW,289,4.0,6.0,84,0.00,,,-99.99,,2013-05-02 09:32:00,
2013-05-02 03:42:00,14.0,10.0,-100.00,WNW,294,4.0,6.0,83,0.00,,,-99.99,,2013-05-02 09:42:00,
2013-05-02 03:52:00,14.0,10.0,-100.00,WNW,288,4.0,6.0,82,0.00,,,-99.99,,2013-05-02 09:52:00,
2013-05-02 04:02:00,14.0,9.0,-100.00,WNW,288,4.0,5.0,82,0.00,,,-99.99,,2013-05-02 10:02:00,
2013-05-02 04:12:00,15.0,11.0,-100.00,North,352,3.0,6.0,84,0.00,,,-99.99,,2013-05-02 10:12:00,
2013-05-02 04:22:00,15.0,12.0,-100.00,ENE,66,3.0,6.0,89,0.00,,,-99.99,,2013-05-02 10:22:00,
2013-05-02 04:33:00,14.0,12.0,-100.00,NE,37,0.0,2.0,89,0.00,,,-99.99,,2013-05-02 10:33:00,
2013-05-02 04:42:00,14.0,12.0,-100.00,NNE,32,0.0,1.0,91,0.00,,,-99.99,,2013-05-02 10:42:00,
2013-05-02 04:52:00,14.0,12.0,-100.00,ENE,58,1.0,2.0,91,0.00,,,-99.99,,2013-05-02 10:52:00,
2013-05-02 05:02:00,15.0,12.0,-100.00,East,100,2.0,4.0,91,0.00,,,-99.99,,2013-05-02 11:02:00,
2013-05-02 05:12:00,14.0,11.0,-100.00,SSE,150,2.0,4.0,89,0.00,,,-99.99,,2013-05-02 11:12:00,
2013-05-02 05:22:00,13.0,10.0,-100.00,West,268,2.0,4.0,86,0.00,,,-99.99,,2013-05-02 11:22:00,
2013-05-02 05:32:00,13.0,9.0,-100.00,WNW,298,4.0,6.0,85,0.00,,,-99.99,,2013-05-02 11:32:00,
2013-05-02 05:42:00,13.0,9.0,-100.00,WNW,296,4.0,5.0,84,0.00,,,-99.99,,2013-05-02 11:42:00,
2013-05-02 05:52:00,13.0,9.0,-100.00,WNW,284,5.0,7.0,82,0.00,,,-99.99,,2013-05-02 11:52:00,
2013-05-02 06:01:00,13.0,9.0,-100.00,WNW,299,4.0,6.0,83,0.00,,,-99.99,,2013-05-02 12:01:00,
2013-05-02 06:11:00,12.0,8.0,-100.00,NW,304,3.0,5.0,84,0.00,,,-99.99,,2013-05-02 12:11:00,
2013-05-02 06:21:00,12.0,8.0,-100.00,WNW,299,3.0,4.0,83,0.00,,,-99.99,,2013-05-02 12:21:00,
2013-05-02 06:32:00,13.0,8.0,-100.00,WNW,285,2.0,4.0,82,0.00,,,-99.99,,2013-05-02 12:32:00,
2013-05-02 06:42:00,14.0,9.0,-100.00,West,277,2.0,4.0,81,0.00,,,-99.99,,2013-05-02 12:42:00,
2013-05-02 06:52:00,14.0,9.0,-100.00,WNW,282,2.0,4.0,81,0.00,,,-99.99,,2013-05-02 12:52:00,
2013-05-02 07:01:00,15.0,11.0,-100.00,WNW,292,1.0,1.0,82,0.00,,,-99.99,,2013-05-02 13:01:00,
2013-05-02 07:11:00,15.0,11.0,-100.00,West,272,1.0,3.0,81,0.00,,,-99.99,,2013-05-02 13:11:00,
2013-05-02 07:21:00,18.0,12.0,-100.00,WSW,257,1.0,1.0,79,0.00,,,-99.99,,2013-05-02 13:21:00,
2013-05-02 07:32:00,18.0,13.0,-100.00,WSW,244,1.0,2.0,78,0.00,,,-99.99,,2013-05-02 13:32:00,
2013-05-02 07:42:00,19.0,12.0,-100.00,SW,229,1.0,4.0,76,0.00,,,-99.99,,2013-05-02 13:42:00,
2013-05-02 07:52:00,19.0,13.0,-100.00,SW,220,2.0,4.0,77,0.00,,,-99.99,,2013-05-02 13:52:00,
2013-05-02 08:02:00,20.0,13.0,-100.00,SW,219,1.0,3.0,74,0.00,,,-99.99,,2013-05-02 14:02:00,
2013-05-02 08:11:00,20.0,13.0,-100.00,South,182,2.0,4.0,73,0.00,,,-99.99,,2013-05-02 14:11:00,
2013-05-02 08:22:00,21.0,14.0,-100.00,SSW,200,1.0,4.0,73,0.00,,,-99.99,,2013-05-02 14:22:00,
2013-05-02 08:32:00,22.0,14.0,-100.00,South,176,1.0,3.0,70,0.00,,,-99.99,,2013-05-02 14:32:00,
2013-05-02 08:42:00,23.0,15.0,-100.00,SSE,157,1.0,3.0,71,0.00,,,-99.99,,2013-05-02 14:42:00,
2013-05-02 08:52:00,25.0,15.0,-100.00,South,174,1.0,4.0,63,0.00,,,-99.99,,2013-05-02 14:52:00,
2013-05-02 09:02:00,24.0,15.0,-100.00,SSW,200,1.0,4.0,70,0.00,,,-99.99,,2013-05-02 15:02:00,
2013-05-02 09:12:00,25.0,15.0,-100.00,SSW,203,1.0,4.0,64,0.00,,,-99.99,,2013-05-02 15:12:00,
2013-05-02 09:22:00,26.0,13.0,-100.00,West,270,1.0,3.0,59,0.00,,,-99.99,,2013-05-02 15:22:00,
2013-05-02 09:33:00,25.0,14.0,-100.00,WNW,288,1.0,4.0,62,0.00,,,-99.99,,2013-05-02 15:33:00,
2013-05-02 09:43:00,28.0,17.0,-100.00,SW,227,1.0,3.0,61,0.00,,,-99.99,,2013-05-02 15:43:00,
2013-05-02 10:02:00,27.0,17.0,-100.00,SSW,208,1.0,4.0,65,0.00,,,-99.99,,2013-05-02 16:02:00,
2013-05-02 10:13:00,25.0,13.0,-100.00,NW,312,2.0,7.0,58,0.00,,,-99.99,,2013-05-02 16:13:00,
2013-05-02 10:22:00,26.0,14.0,-100.00,NNE,21,2.0,6.0,62,0.00,,,-99.99,,2013-05-02 16:22:00,
2013-05-02 10:32:00,27.0,16.0,-100.00,North,356,2.0,6.0,63,0.00,,,-99.99,,2013-05-02 16:32:00,
2013-05-02 10:43:00,27.0,14.0,-100.00,NNW,342,3.0,7.0,60,0.00,,,-99.99,,2013-05-02 16:43:00,
2013-05-02 10:52:00,26.0,15.0,-100.00,North,353,4.0,9.0,61,0.00,,,-99.99,,2013-05-02 16:52:00,
2013-05-02 11:02:00,27.0,13.0,-100.00,NNW,347,5.0,11.0,54,0.00,,,-99.99,,2013-05-02 17:02:00,
2013-05-02 11:12:00,28.0,14.0,-100.00,NW,313,4.0,8.0,55,0.00,,,-99.99,,2013-05-02 17:12:00,
2013-05-02 11:22:00,29.0,15.0,-100.00,North,354,4.0,10.0,56,0.00,,,-99.99,,2013-05-02 17:22:00,
2013-05-02 11:32:00,29.0,16.0,-100.00,NW,320,7.0,13.0,58,0.00,,,-99.99,,2013-05-02 17:32:00,
2013-05-02 11:42:00,29.0,12.0,-100.00,NNW,333,8.0,13.0,48,0.00,,,-99.99,,2013-05-02 17:42:00,
2013-05-02 11:51:00,29.0,16.0,-100.00,NNW,340,9.0,16.0,57,0.00,,,-99.99,,2013-05-02 17:51:00,
2013-05-02 12:01:00,30.0,15.0,-100.00,NNW,347,9.0,14.0,54,0.00,,,-99.99,,2013-05-02 18:01:00,
2013-05-02 12:11:00,30.0,15.0,-100.00,NNW,339,9.0,13.0,52,0.00,,,-99.99,,2013-05-02 18:11:00,
2013-05-02 12:21:00,30.0,19.0,-100.00,North,350,11.0,17.0,64,0.00,,,-99.99,,2013-05-02 18:21:00,
2013-05-02 12:32:00,31.0,13.0,-100.00,NNW,337,11.0,15.0,47,0.00,,,-99.99,,2013-05-02 18:32:00,
2013-05-02 12:41:00,31.0,17.0,-100.00,NNW,346,10.0,16.0,55,0.00,,,-99.99,,2013-05-02 18:41:00,
2013-05-02 12:52:00,32.0,20.0,-100.00,NNW,344,10.0,17.0,60,0.00,,,-99.99,,2013-05-02 18:52:00,
2013-05-02 13:01:00,32.0,10.0,-100.00,NNW,332,11.0,17.0,39,0.00,,,-99.99,,2013-05-02 19:01:00,
2013-05-02 13:11:00,33.0,13.0,-100.00,NNW,343,13.0,18.0,45,0.00,,,-99.99,,2013-05-02 19:11:00,
2013-05-02 13:21:00,33.0,19.0,-100.00,NNW,339,13.0,19.0,56,0.00,,,-99.99,,2013-05-02 19:21:00,
2013-05-02 13:32:00,34.0,10.0,-100.00,NNW,333,15.0,22.0,36,0.00,,,-99.99,,2013-05-02 19:32:00,
2013-05-02 13:42:00,34.0,11.0,-100.00,NNW,335,15.0,22.0,38,0.00,,,-99.99,,2013-05-02 19:42:00,
2013-05-02 13:52:00,34.0,8.0,-100.00,NNW,337,16.0,24.0,33,0.00,,,-99.99,,2013-05-02 19:52:00,
2013-05-02 14:02:00,34.0,11.0,-100.00,NNW,330,20.0,27.0,38,0.00,,,-99.99,,2013-05-02 20:02:00,
2013-05-02 14:11:00,35.0,7.0,-100.00,NNW,335,18.0,24.0,30,0.00,,,-99.99,,2013-05-02 20:11:00,
2013-05-02 14:22:00,35.0,11.0,-100.00,NNW,332,19.0,28.0,36,0.00,,,-99.99,,2013-05-02 20:22:00,
2013-05-02 14:32:00,35.0,16.0,-100.00,NNW,329,18.0,25.0,46,0.00,,,-99.99,,2013-05-02 20:32:00,
2013-05-02 14:41:00,35.0,9.0,-100.00,NNW,330,17.0,24.0,33,0.00,,,-99.99,,2013-05-02 20:41:00,
2013-05-02 14:52:00,35.0,8.0,-100.00,NNW,333,14.0,17.0,32,0.00,,,-99.99,,2013-05-02 20:52:00,
2013-05-02 15:01:00,36.0,10.0,-100.00,NW,306,14.0,22.0,33,0.00,,,-99.99,,2013-05-02 21:01:00,
2013-05-02 15:11:00,36.0,15.0,-100.00,NW,325,14.0,24.0,41,0.00,,,-99.99,,2013-05-02 21:11:00,
2013-05-02 15:21:00,36.0,11.0,-100.00,NW,322,16.0,22.0,34,0.00,,,-99.99,,2013-05-02 21:21:00,
2013-05-02 15:33:00,36.0,12.0,-100.00,NW,306,14.0,24.0,36,0.00,,,-99.99,,2013-05-02 21:33:00,
2013-05-02 15:42:00,37.0,16.0,-100.00,NW,308,16.0,26.0,42,0.00,,,-99.99,,2013-05-02 21:42:00,
2013-05-02 15:53:00,38.0,14.0,-100.00,NW,306,16.0,24.0,36,0.00,,,-99.99,,2013-05-02 21:53:00,
2013-05-02 16:02:00,38.0,11.0,-100.00,WNW,302,14.0,26.0,33,0.00,,,-99.99,,2013-05-02 22:02:00,
2013-05-02 16:12:00,38.0,14.0,-100.00,NW,305,15.0,22.0,36,0.00,,,-99.99,,2013-05-02 22:12:00,
2013-05-02 16:22:00,39.0,12.0,-100.00,NW,312,16.0,24.0,32,0.00,,,-99.99,,2013-05-02 22:22:00,
2013-05-02 16:32:00,38.0,12.0,-100.00,NW,312,19.0,33.0,33,0.00,,,-99.99,,2013-05-02 22:32:00,
2013-05-02 16:42:00,39.0,13.0,-100.00,NW,313,19.0,28.0,34,0.00,,,-99.99,,2013-05-02 22:42:00,
2013-05-02 16:52:00,39.0,11.0,-100.00,NW,319,19.0,26.0,31,0.00,,,-99.99,,2013-05-02 22:52:00,
2013-05-02 17:02:00,40.0,11.0,-100.00,NW,319,17.0,22.0,30,0.00,,,-99.99,,2013-05-02 23:02:00,
2013-05-02 17:11:00,40.0,12.0,-100.00,WNW,299,16.0,22.0,31,0.00,,,-99.99,,2013-05-02 23:11:00,
2013-05-02 17:22:00,40.0,13.0,-100.00,NW,309,17.0,23.0,33,0.00,,,-99.99,,2013-05-02 23:22:00,
2013-05-02 17:32:00,41.0,11.0,-100.00,NW,309,17.0,25.0,29,0.00,,,-99.99,,2013-05-02 23:32:00,
2013-05-02 17:42:00,41.0,16.0,-100.00,NW,306,16.0,21.0,36,0.00,,,-99.99,,2013-05-02 23:42:00,
2013-05-02 17:51:00,41.0,13.0,-100.00,NW,304,17.0,26.0,31,0.00,,,-99.99,,2013-05-02 23:51:00,
2013-05-02 18:01:00,41.0,13.0,-100.00,WNW,301,19.0,27.0,31,0.00,,,-99.99,,2013-05-03 00:01:00,
2013-05-02 18:11:00,41.0,12.0,-100.00,NW,308,17.0,22.0,30,0.00,,,-99.99,,2013-05-03 00:11:00,
2013-05-02 18:21:00,41.0,10.0,-100.00,NW,309,20.0,25.0,28,0.00,,,-99.99,,2013-05-03 00:21:00,
2013-05-02 18:31:00,41.0,11.0,-100.00,NW,312,18.0,24.0,29,0.00,,,-99.99,,2013-05-03 00:31:00,
2013-05-02 18:41:00,41.0,15.0,-100.00,NW,322,20.0,27.0,34,0.00,,,-99.99,,2013-05-03 00:41:00,
2013-05-02 18:52:00,41.0,13.0,-100.00,NW,318,17.0,24.0,31,0.00,,,-99.99,,2013-05-03 00:52:00,
2013-05-02 19:01:00,40.0,11.0,-100.00,NW,316,19.0,24.0,29,0.00,,,-99.99,,2013-05-03 01:01:00,
2013-05-02 19:11:00,40.0,14.0,-100.00,NW,322,18.0,24.0,34,0.00,,,-99.99,,2013-05-03 01:11:00,
2013-05-02 19:21:00,40.0,9.0,-100.00,NW,323,19.0,24.0,27,0.00,,,-99.99,,2013-05-03 01:21:00,
2013-05-02 19:31:00,40.0,12.0,-100.00,NW,320,17.0,21.0,31,0.00,,,-99.99,,2013-05-03 01:31:00,
2013-05-02 19:42:00,39.0,13.0,-100.00,NW,322,15.0,20.0,34,0.00,,,-99.99,,2013-05-03 01:42:00,
2013-05-02 19:52:00,39.0,13.0,-100.00,NW,322,14.0,19.0,34,0.00,,,-99.99,,2013-05-03 01:52:00,
2013-05-02 20:01:00,38.0,13.0,-100.00,NW,319,11.0,16.0,36,0.00,,,-99.99,,2013-05-03 02:01:00,
2013-05-02 20:11:00,37.0,15.0,-100.00,NW,312,7.0,12.0,40,0.00,,,-99.99,,2013-05-03 02:11:00,
2013-05-02 20:21:00,36.0,15.0,-100.00,NW,312,7.0,9.0,40,0.00,,,-99.99,,2013-05-03 02:21:00,
2013-05-02 20:32:00,35.0,16.0,-100.00,NW,309,6.0,7.0,45,0.00,,,-99.99,,2013-05-03 02:32:00,
2013-05-02 20:42:00,35.0,15.0,-100.00,WNW,302,6.0,7.0,44,0.00,,,-99.99,,2013-05-03 02:42:00,
2013-05-02 20:52:00,34.0,16.0,-100.00,WNW,295,4.0,7.0,46,0.00,,,-99.99,,2013-05-03 02:52:00,
2013-05-02 21:01:00,33.0,17.0,-100.00,West,281,2.0,4.0,51,0.00,,,-99.99,,2013-05-03 03:01:00,
2013-05-02 21:11:00,33.0,16.0,-100.00,West,275,2.0,4.0,49,0.00,,,-99.99,,2013-05-03 03:11:00,
2013-05-02 21:21:00,34.0,15.0,-100.00,WSW,257,2.0,3.0,44,0.00,,,-99.99,,2013-05-03 03:21:00,
2013-05-02 21:33:00,34.0,17.0,-100.00,West,261,3.0,6.0,48,0.00,,,-99.99,,2013-05-03 03:33:00,
2013-05-02 21:42:00,33.0,15.0,-100.00,West,281,3.0,4.0,46,0.00,,,-99.99,,2013-05-03 03:42:00,
2013-05-02 21:52:00,33.0,14.0,-100.00,West,277,2.0,4.0,46,0.00,,,-99.99,,2013-05-03 03:52:00,
2013-05-02 22:03:00,33.0,11.0,-100.00,West,268,2.0,4.0,39,0.00,,,-99.99,,2013-05-03 04:03:00,
2013-05-02 22:12:00,33.0,11.0,-100.00,West,277,1.0,3.0,39,0.00,,,-99.99,,2013-05-03 04:12:00,
2013-05-02 22:22:00,34.0,11.0,-100.00,WNW,295,2.0,6.0,38,0.00,,,-99.99,,2013-05-03 04:22:00,
2013-05-02 22:32:00,35.0,17.0,-100.00,WNW,295,3.0,5.0,48,0.00,,,-99.99,,2013-05-03 04:32:00,
2013-05-02 22:42:00,29.0,16.0,-100.00,North,4,1.0,4.0,57,0.00,,,-99.99,,2013-05-03 04:42:00,
2013-05-02 22:52:00,31.0,14.0,-100.00,WNW,284,1.0,4.0,49,0.00,,,-99.99,,2013-05-03 04:52:00,
2013-05-02 23:02:00,31.0,15.0,-100.00,West,281,1.0,3.0,49,0.00,,,-99.99,,2013-05-03 05:02:00,
2013-05-02 23:12:00,32.0,12.0,-100.00,West,278,1.0,3.0,44,0.00,,,-99.99,,2013-05-03 05:12:00,
2013-05-02 23:21:00,31.0,16.0,-100.00,SW,227,1.0,4.0,52,0.00,,,-99.99,,2013-05-03 05:21:00,
2013-05-02 23:32:00,30.0,16.0,-100.00,SSW,200,1.0,4.0,54,0.00,,,-99.99,,2013-05-03 05:32:00,
2013-05-02 23:42:00,31.0,15.0,-100.00,SW,229,1.0,1.0,52,0.00,,,-99.99,,2013-05-03 05:42:00,
2013-05-02 23:52:00,31.0,15.0,-100.00,WSW,237,1.0,4.0,53,0.00,,,-99.99,,2013-05-03 05:52:00,